createdAt,value
2019-05-21T00:00:03.573Z,17.38
2019-05-21T00:02:33.191Z,17.36
2019-05-21T00:05:02.774Z,17.35
2019-05-21T00:07:32.576Z,17.31
2019-05-21T00:10:02.512Z,17.29
2019-05-21T00:12:32.609Z,17.27
2019-05-21T00:15:02.531Z,17.25
2019-05-21T00:17:32.413Z,17.22
2019-05-21T00:20:02.273Z,17.23
2019-05-21T00:22:32.265Z,17.16
2019-05-21T00:25:02.511Z,17.15
2019-05-21T00:27:32.823Z,17.16
2019-05-21T00:30:37.963Z,17.14
2019-05-21T00:33:43.268Z,17.12
2019-05-21T00:36:49.654Z,17.07
2019-05-21T00:39:55.140Z,17.03
2019-05-21T00:42:32.033Z,17.01
2019-05-21T00:45:02.344Z,16.98
2019-05-21T00:47:35.309Z,16.97
2019-05-21T00:50:06.417Z,16.95
2019-05-21T00:52:36.026Z,16.93
2019-05-21T00:55:05.920Z,16.92
2019-05-21T00:57:35.480Z,16.92
2019-05-21T01:00:06.058Z,16.93
2019-05-21T01:02:35.661Z,16.88
2019-05-21T01:05:05.661Z,16.84
2019-05-21T01:07:35.238Z,16.81
2019-05-21T01:10:05.121Z,16.81
2019-05-21T01:12:36.190Z,16.85
2019-05-21T01:15:06.003Z,16.86
2019-05-21T01:17:35.486Z,16.79
2019-05-21T01:20:05.106Z,16.77
2019-05-21T01:22:34.595Z,16.77
2019-05-21T01:25:04.333Z,16.77
2019-05-21T01:27:34.262Z,16.75
2019-05-21T01:30:04.157Z,16.75
2019-05-21T01:32:33.661Z,16.75
2019-05-21T01:35:16.006Z,16.74
2019-05-21T01:37:34.687Z,16.74
2019-05-21T01:40:04.434Z,16.75
2019-05-21T01:42:34.013Z,16.73
2019-05-21T01:45:03.575Z,16.71
2019-05-21T01:47:33.343Z,16.68
2019-05-21T01:50:02.935Z,16.68
2019-05-21T01:52:32.702Z,16.65
2019-05-21T01:55:05.474Z,16.62
2019-05-21T01:57:35.025Z,16.60
2019-05-21T02:00:04.819Z,15.97
2019-05-21T02:02:35.323Z,16.58
2019-05-21T02:05:04.985Z,16.53
2019-05-21T02:07:34.516Z,16.49
2019-05-21T02:10:04.777Z,16.47
2019-05-21T02:12:34.423Z,16.45
2019-05-21T02:15:04.042Z,16.41
2019-05-21T02:17:33.912Z,16.38
2019-05-21T02:20:03.481Z,16.37
2019-05-21T02:22:33.105Z,16.34
2019-05-21T02:25:02.820Z,16.32
2019-05-21T02:27:35.409Z,16.31
2019-05-21T02:30:07.251Z,16.29
2019-05-21T02:32:37.297Z,16.21
2019-05-21T02:35:07.603Z,16.18
2019-05-21T02:37:37.104Z,16.15
2019-05-21T02:40:07.287Z,16.13
2019-05-21T02:42:37.752Z,16.09
2019-05-21T02:45:08.267Z,16.03
2019-05-21T02:47:37.982Z,16.05
2019-05-21T02:50:08.532Z,16.07
2019-05-21T02:52:38.047Z,16.05
2019-05-21T02:55:08.154Z,16.03
2019-05-21T02:57:41.802Z,16.03
2019-05-21T03:00:38.601Z,16.08
2019-05-21T03:03:07.409Z,16.08
2019-05-21T03:05:37.354Z,16.07
2019-05-21T03:08:06.864Z,16.07
2019-05-21T03:10:36.573Z,16.06
2019-05-21T03:13:06.472Z,16.07
2019-05-21T03:15:36.105Z,16.03
2019-05-21T03:18:05.904Z,16.02
2019-05-21T03:20:35.615Z,16.01
2019-05-21T03:23:05.231Z,16.00
2019-05-21T03:25:34.817Z,15.98
2019-05-21T03:28:04.606Z,15.96
2019-05-21T03:30:34.158Z,15.95
2019-05-21T03:33:03.696Z,15.91
2019-05-21T03:35:33.741Z,15.92
2019-05-21T03:38:03.189Z,15.93
2019-05-21T03:40:32.731Z,15.91
2019-05-21T03:43:05.343Z,15.92
2019-05-21T03:45:34.968Z,15.98
2019-05-21T03:48:04.733Z,15.95
2019-05-21T03:50:34.769Z,15.93
2019-05-21T03:53:04.177Z,15.92
2019-05-21T03:55:33.781Z,15.93
2019-05-21T03:58:03.616Z,15.91
2019-05-21T04:00:33.217Z,15.92
2019-05-21T04:03:02.843Z,15.95
2019-05-21T04:05:32.805Z,15.95
2019-05-21T04:08:02.703Z,15.29
2019-05-21T04:10:33.086Z,15.98
2019-05-21T04:13:09.861Z,15.99
2019-05-21T04:15:59.752Z,16.00
2019-05-21T04:18:43.779Z,16.00
2019-05-21T04:21:13.522Z,16.07
2019-05-21T04:23:43.254Z,16.10
2019-05-21T04:26:13.020Z,16.10
2019-05-21T04:28:42.707Z,16.11
2019-05-21T04:31:12.454Z,16.12
2019-05-21T04:33:42.164Z,16.11
2019-05-21T04:36:11.848Z,16.12
2019-05-21T04:38:41.349Z,16.13
2019-05-21T04:41:11.557Z,16.13
2019-05-21T04:43:41.172Z,16.16
2019-05-21T04:46:11.551Z,16.14
2019-05-21T04:48:41.272Z,16.15
2019-05-21T04:51:13.689Z,16.20
2019-05-21T04:53:42.378Z,16.22
2019-05-21T04:56:11.984Z,16.22
2019-05-21T04:58:41.512Z,16.23
2019-05-21T05:01:11.100Z,16.28
2019-05-21T05:03:40.637Z,16.34
2019-05-21T05:06:10.388Z,16.42
2019-05-21T05:08:40.100Z,16.46
2019-05-21T05:11:09.784Z,16.53
2019-05-21T05:13:39.222Z,16.58
2019-05-21T05:16:09.167Z,16.62
2019-05-21T05:18:38.664Z,16.61
2019-05-21T05:21:08.347Z,16.63
2019-05-21T05:23:38.029Z,16.69
2019-05-21T05:26:08.043Z,16.73
2019-05-21T05:28:37.632Z,16.76
2019-05-21T05:31:07.808Z,16.79
2019-05-21T05:33:37.439Z,16.86
2019-05-21T05:36:07.138Z,16.93
2019-05-21T05:38:37.245Z,16.75
2019-05-21T05:41:06.990Z,17.06
2019-05-21T05:43:36.893Z,17.03
2019-05-21T05:46:06.882Z,17.20
2019-05-21T05:48:42.458Z,17.27
2019-05-21T05:51:12.723Z,17.36
2019-05-21T05:53:58.272Z,17.43
2019-05-21T05:56:29.643Z,17.47
2019-05-21T05:59:00.810Z,17.54
2019-05-21T06:01:33.197Z,17.62
2019-05-21T06:04:02.876Z,17.66
2019-05-21T06:06:32.635Z,17.71
2019-05-21T06:09:02.903Z,17.76
2019-05-21T06:11:32.927Z,17.80
2019-05-21T06:14:03.017Z,17.85
2019-05-21T06:16:32.971Z,17.33
2019-05-21T06:19:02.765Z,17.95
2019-05-21T06:21:32.932Z,18.00
2019-05-21T06:24:03.158Z,17.26
2019-05-21T06:26:32.684Z,18.09
2019-05-21T06:29:02.685Z,18.22
2019-05-21T06:31:33.042Z,18.33
2019-05-21T06:34:02.760Z,18.41
2019-05-21T06:36:32.827Z,18.29
2019-05-21T06:39:04.135Z,18.57
2019-05-21T06:41:33.763Z,18.66
2019-05-21T06:44:03.460Z,18.76
2019-05-21T06:46:33.382Z,18.82
2019-05-21T06:49:03.714Z,18.90
2019-05-21T06:51:33.621Z,18.95
2019-05-21T06:54:03.376Z,19.03
2019-05-21T06:56:33.121Z,19.15
2019-05-21T06:59:02.873Z,19.16
2019-05-21T07:01:33.001Z,19.20
2019-05-21T07:04:03.144Z,19.20
2019-05-21T07:06:32.657Z,19.23
2019-05-21T07:09:05.869Z,19.29
2019-05-21T07:11:35.592Z,19.36
2019-05-21T07:14:05.206Z,19.54
2019-05-21T07:16:35.189Z,19.62
2019-05-21T07:19:04.790Z,19.69
2019-05-21T07:21:34.376Z,19.78
2019-05-21T07:24:04.069Z,19.82
2019-05-21T07:26:33.525Z,19.84
2019-05-21T07:29:03.084Z,19.84
2019-05-21T07:31:32.780Z,20.07
2019-05-21T07:34:05.444Z,20.25
2019-05-21T07:36:35.962Z,20.31
2019-05-21T07:39:07.687Z,20.24
2019-05-21T07:41:37.421Z,20.15
2019-05-21T07:44:07.090Z,20.05
2019-05-21T07:46:39.534Z,20.29
2019-05-21T07:49:08.090Z,20.41
2019-05-21T07:51:37.630Z,21.24
2019-05-21T07:54:07.993Z,20.87
2019-05-21T07:56:37.812Z,20.47
2019-05-21T07:59:07.496Z,20.30
2019-05-21T08:01:37.165Z,20.33
2019-05-21T08:04:07.139Z,20.12
2019-05-21T08:06:36.774Z,20.02
2019-05-21T08:09:14.270Z,19.94
2019-05-21T08:11:38.718Z,20.06
2019-05-21T08:14:08.535Z,20.02
2019-05-21T08:16:38.165Z,19.98
2019-05-21T08:19:07.779Z,19.94
2019-05-21T08:21:37.440Z,19.93
2019-05-21T08:24:07.043Z,19.93
2019-05-21T08:26:36.972Z,20.04
2019-05-21T08:29:06.479Z,20.09
2019-05-21T08:31:36.197Z,20.20
2019-05-21T08:34:06.065Z,20.34
2019-05-21T08:36:35.601Z,20.49
2019-05-21T08:39:06.491Z,20.74
2019-05-21T08:41:36.431Z,21.07
2019-05-21T08:44:05.953Z,21.36
2019-05-21T08:46:35.544Z,21.73
2019-05-21T08:49:05.888Z,21.94
2019-05-21T08:51:35.439Z,22.03
2019-05-21T08:54:05.181Z,22.16
2019-05-21T08:56:35.047Z,22.32
2019-05-21T08:59:04.598Z,22.54
2019-05-21T09:01:36.268Z,22.74
2019-05-21T09:04:06.127Z,22.94
2019-05-21T09:06:35.771Z,22.94
2019-05-21T09:09:06.693Z,22.91
2019-05-21T09:11:36.781Z,22.95
2019-05-21T09:14:06.374Z,23.13
2019-05-21T09:16:36.254Z,23.25
2019-05-21T09:19:05.903Z,23.11
2019-05-21T09:21:35.645Z,23.02
2019-05-21T09:24:05.713Z,22.79
2019-05-21T09:26:35.629Z,22.42
2019-05-21T09:29:05.706Z,22.24
2019-05-21T09:31:36.098Z,22.08
2019-05-21T09:34:06.043Z,21.78
2019-05-21T09:36:36.338Z,21.70
2019-05-21T09:39:07.807Z,21.65
2019-05-21T09:41:37.559Z,21.55
2019-05-21T09:44:07.652Z,21.56
2019-05-21T09:46:37.385Z,21.57
2019-05-21T09:49:07.257Z,21.59
2019-05-21T09:51:36.902Z,21.70
2019-05-21T09:54:06.541Z,22.02
2019-05-21T09:56:36.800Z,22.37
2019-05-21T09:59:16.115Z,22.70
2019-05-21T10:01:48.832Z,22.98
2019-05-21T10:04:18.712Z,23.25
2019-05-21T10:06:48.410Z,23.46
2019-05-21T10:09:19.663Z,23.63
2019-05-21T10:11:49.165Z,23.63
2019-05-21T10:14:18.933Z,23.58
2019-05-21T10:16:48.658Z,23.49
2019-05-21T10:19:18.179Z,23.41
2019-05-21T10:21:47.797Z,23.26
2019-05-21T10:24:18.004Z,23.11
2019-05-21T10:26:47.580Z,23.04
2019-05-21T10:29:17.193Z,23.06
2019-05-21T10:31:46.998Z,23.09
2019-05-21T10:34:16.562Z,23.17
2019-05-21T10:36:46.165Z,23.13
2019-05-21T10:39:15.876Z,23.09
2019-05-21T10:41:46.307Z,23.04
2019-05-21T10:44:16.023Z,23.08
2019-05-21T10:46:45.648Z,23.09
2019-05-21T10:49:15.230Z,23.06
2019-05-21T10:51:44.830Z,23.09
2019-05-21T10:54:14.653Z,23.09
2019-05-21T10:56:47.861Z,23.05
2019-05-21T10:59:16.319Z,23.07
2019-05-21T11:02:17.041Z,23.09
2019-05-21T11:04:59.806Z,23.06
2019-05-21T11:07:29.607Z,23.07
2019-05-21T11:09:59.460Z,23.00
2019-05-21T11:12:32.039Z,23.06
2019-05-21T11:15:01.870Z,23.10
2019-05-21T11:17:48.054Z,23.07
2019-05-21T11:20:03.379Z,23.17
2019-05-21T11:22:32.979Z,23.27
2019-05-21T11:25:02.758Z,23.35
2019-05-21T11:27:33.162Z,23.39
2019-05-21T11:30:02.963Z,23.36
2019-05-21T11:32:32.755Z,23.36
2019-05-21T11:35:06.044Z,23.45
2019-05-21T11:37:35.673Z,23.48
2019-05-21T11:40:08.509Z,23.45
2019-05-21T11:42:37.560Z,23.47
2019-05-21T11:45:09.993Z,23.42
2019-05-21T11:47:39.711Z,23.26
2019-05-21T11:50:09.332Z,23.26
2019-05-21T11:52:39.021Z,23.19
2019-05-21T11:55:08.908Z,23.28
2019-05-21T11:57:38.482Z,23.34
2019-05-21T12:00:09.236Z,23.34
2019-05-21T12:02:39.277Z,23.54
2019-05-21T12:05:09.939Z,23.81
2019-05-21T12:07:39.515Z,23.97
2019-05-21T12:10:09.628Z,23.89
2019-05-21T12:12:39.369Z,23.90
2019-05-21T12:15:10.039Z,23.91
2019-05-21T12:17:39.644Z,23.97
2019-05-21T12:20:42.953Z,24.16
2019-05-21T12:23:43.481Z,24.09
2019-05-21T12:26:13.222Z,24.15
2019-05-21T12:28:42.998Z,24.22
2019-05-21T12:31:12.627Z,24.27
2019-05-21T12:33:44.431Z,24.43
2019-05-21T12:36:13.996Z,24.59
2019-05-21T12:38:43.639Z,24.57
2019-05-21T12:41:14.035Z,24.42
2019-05-21T12:43:43.556Z,24.39
2019-05-21T12:46:13.240Z,24.54
2019-05-21T12:48:42.952Z,24.56
2019-05-21T12:51:12.581Z,24.59
2019-05-21T12:53:42.432Z,24.11
2019-05-21T12:56:12.320Z,24.56
2019-05-21T12:58:42.083Z,24.48
2019-05-21T13:01:11.657Z,24.46
2019-05-21T13:03:41.462Z,24.55
2019-05-21T13:06:10.940Z,24.58
2019-05-21T13:08:40.569Z,24.49
2019-05-21T13:11:10.201Z,24.25
2019-05-21T13:13:40.061Z,24.42
2019-05-21T13:16:09.614Z,24.57
2019-05-21T13:18:39.191Z,24.81
2019-05-21T13:21:08.761Z,24.88
2019-05-21T13:23:38.326Z,25.03
2019-05-21T13:26:08.685Z,25.15
2019-05-21T13:28:38.999Z,25.31
2019-05-21T13:31:08.874Z,25.41
2019-05-21T13:33:38.430Z,25.52
2019-05-21T13:36:08.351Z,25.36
2019-05-21T13:38:39.166Z,25.35
2019-05-21T13:41:10.198Z,25.24
2019-05-21T13:43:40.288Z,25.10
2019-05-21T13:46:10.002Z,25.09
2019-05-21T13:48:39.949Z,25.06
2019-05-21T13:51:09.434Z,24.92
2019-05-21T13:53:39.556Z,24.94
2019-05-21T13:56:09.394Z,24.82
2019-05-21T13:58:39.045Z,24.85
2019-05-21T14:01:09.350Z,24.89
2019-05-21T14:03:39.507Z,24.86
2019-05-21T14:06:09.180Z,24.74
2019-05-21T14:08:38.699Z,24.67
2019-05-21T14:11:08.870Z,24.65
2019-05-21T14:13:38.523Z,24.49
2019-05-21T14:16:08.026Z,24.12
2019-05-21T14:18:37.853Z,23.55
2019-05-21T14:21:07.575Z,23.07
2019-05-21T14:23:37.100Z,22.54
2019-05-21T14:26:06.921Z,21.48
2019-05-21T14:28:36.527Z,20.46
2019-05-21T14:31:06.098Z,19.87
2019-05-21T14:33:35.832Z,19.69
2019-05-21T14:36:05.955Z,19.72
2019-05-21T14:38:35.702Z,19.73
2019-05-21T14:41:05.530Z,19.57
2019-05-21T14:43:35.217Z,19.52
2019-05-21T14:46:05.178Z,19.38
2019-05-21T14:48:34.726Z,19.47
2019-05-21T14:51:05.017Z,19.46
2019-05-21T14:53:34.612Z,19.42
2019-05-21T14:56:04.232Z,19.49
2019-05-21T14:58:33.967Z,19.57
2019-05-21T15:01:03.543Z,19.64
2019-05-21T15:03:33.024Z,19.74
2019-05-21T15:06:02.709Z,19.82
2019-05-21T15:08:35.291Z,19.90
2019-05-21T15:11:04.970Z,19.85
2019-05-21T15:13:34.518Z,19.82
2019-05-21T15:16:04.374Z,19.79
2019-05-21T15:18:34.045Z,19.75
2019-05-21T15:21:11.355Z,19.75
2019-05-21T15:23:41.608Z,19.74
2019-05-21T15:26:12.131Z,19.69
2019-05-21T15:28:41.626Z,19.66
2019-05-21T15:31:11.285Z,19.68
2019-05-21T15:33:40.886Z,19.64
2019-05-21T15:36:10.404Z,19.72
2019-05-21T15:38:50.264Z,19.72
2019-05-21T15:41:12.787Z,19.70
2019-05-21T15:43:42.644Z,19.73
2019-05-21T15:46:12.260Z,19.78
2019-05-21T15:48:41.728Z,19.75
2019-05-21T15:51:11.528Z,19.75
2019-05-21T15:53:41.127Z,19.56
2019-05-21T15:56:10.820Z,19.46
2019-05-21T15:58:40.323Z,19.40
2019-05-21T16:01:09.830Z,19.42
2019-05-21T16:03:39.384Z,19.42
2019-05-21T16:06:08.878Z,19.43
2019-05-21T16:08:38.560Z,19.52
2019-05-21T16:11:08.281Z,19.52
2019-05-21T16:13:37.796Z,19.46
2019-05-21T16:16:07.242Z,19.48
2019-05-21T16:18:37.111Z,19.50
2019-05-21T16:21:06.771Z,19.52
2019-05-21T16:23:36.471Z,19.57
2019-05-21T16:26:06.150Z,19.54
2019-05-21T16:28:36.092Z,19.52
2019-05-21T16:31:05.855Z,19.54
2019-05-21T16:33:35.563Z,19.51
2019-05-21T16:36:05.385Z,19.48
2019-05-21T16:38:36.313Z,19.49
2019-05-21T16:41:06.088Z,19.61
2019-05-21T16:43:35.735Z,19.69
2019-05-21T16:46:05.487Z,19.79
2019-05-21T16:48:35.026Z,19.84
2019-05-21T16:51:04.750Z,19.86
2019-05-21T16:53:36.889Z,19.89
2019-05-21T16:56:06.607Z,19.93
2019-05-21T16:58:36.412Z,19.92
2019-05-21T17:01:07.310Z,19.96
2019-05-21T17:03:37.396Z,19.96
2019-05-21T17:06:07.083Z,19.96
2019-05-21T17:08:37.190Z,19.98
2019-05-21T17:11:07.227Z,19.99
2019-05-21T17:13:36.798Z,20.02
2019-05-21T17:16:06.688Z,20.10
2019-05-21T17:18:36.268Z,20.12
2019-05-21T17:21:06.459Z,20.22
2019-05-21T17:23:36.416Z,20.25
2019-05-21T17:26:06.289Z,20.32
2019-05-21T17:28:36.030Z,20.39
2019-05-21T17:31:05.914Z,20.34
2019-05-21T17:33:35.528Z,20.34
2019-05-21T17:36:05.176Z,20.30
2019-05-21T17:38:37.492Z,20.25
2019-05-21T17:41:09.479Z,20.24
2019-05-21T17:43:39.719Z,20.21
2019-05-21T17:46:09.533Z,20.14
2019-05-21T17:48:39.303Z,20.12
2019-05-21T17:51:09.434Z,20.13
2019-05-21T17:53:39.202Z,20.15
2019-05-21T17:56:08.863Z,20.17
2019-05-21T17:58:38.964Z,20.20
2019-05-21T18:01:11.587Z,20.21
2019-05-21T18:03:42.482Z,20.19
2019-05-21T18:06:12.450Z,20.23
2019-05-21T18:08:46.437Z,20.23
2019-05-21T18:11:17.468Z,17.75
2019-05-21T18:13:49.689Z,20.17
2019-05-21T18:16:20.642Z,20.21
2019-05-21T18:18:53.683Z,20.20
2019-05-21T18:21:29.228Z,20.11
2019-05-21T18:24:03.663Z,20.03
2019-05-21T18:26:33.935Z,20.00
2019-05-21T18:29:03.750Z,20.00
2019-05-21T18:31:33.779Z,19.98
2019-05-21T18:34:03.635Z,19.96
2019-05-21T18:36:33.472Z,19.89
2019-05-21T18:39:03.350Z,19.88
2019-05-21T18:41:33.065Z,19.88
2019-05-21T18:44:05.827Z,19.84
2019-05-21T18:46:35.570Z,19.81
2019-05-21T18:49:05.264Z,19.78
2019-05-21T18:51:35.077Z,19.79
2019-05-21T18:54:04.878Z,19.76
2019-05-21T18:56:34.501Z,19.76
2019-05-21T18:59:05.161Z,19.77
2019-05-21T19:01:38.177Z,19.79
2019-05-21T19:04:08.213Z,19.85
2019-05-21T19:06:37.788Z,19.92
2019-05-21T19:09:08.651Z,19.87
2019-05-21T19:11:38.485Z,19.90
2019-05-21T19:14:08.115Z,19.93
2019-05-21T19:16:37.636Z,19.97
2019-05-21T19:19:07.593Z,19.96
2019-05-21T19:21:37.419Z,19.97
2019-05-21T19:24:07.232Z,20.00
2019-05-21T19:26:37.115Z,19.98
2019-05-21T19:29:07.868Z,19.96
2019-05-21T19:31:38.100Z,19.85
2019-05-21T19:34:08.767Z,19.78
2019-05-21T19:36:39.644Z,19.73
2019-05-21T19:39:09.472Z,19.73
2019-05-21T19:41:39.605Z,19.75
2019-05-21T19:44:09.341Z,19.73
2019-05-21T19:46:38.922Z,19.70
2019-05-21T19:49:08.555Z,19.68
2019-05-21T19:51:38.289Z,19.66
2019-05-21T19:54:07.860Z,19.63
2019-05-21T19:56:39.736Z,19.61
2019-05-21T19:59:09.684Z,19.60
2019-05-21T20:01:39.659Z,19.61
2019-05-21T20:04:11.614Z,19.59
2019-05-21T20:06:41.266Z,19.62
2019-05-21T20:09:15.209Z,19.61
2019-05-21T20:11:45.315Z,19.59
2019-05-21T20:14:15.235Z,19.58
2019-05-21T20:16:45.379Z,19.58
2019-05-21T20:19:15.521Z,19.56
2019-05-21T20:21:45.278Z,19.55
2019-05-21T20:24:15.315Z,19.54
2019-05-21T20:26:45.566Z,19.53
2019-05-21T20:29:16.160Z,19.52
2019-05-21T20:31:45.904Z,19.51
2019-05-21T20:34:15.725Z,19.52
2019-05-21T20:36:45.489Z,19.53
2019-05-21T20:39:18.841Z,19.54
2019-05-21T20:41:49.955Z,19.55
2019-05-21T20:44:20.427Z,19.54
2019-05-21T20:46:50.028Z,19.54
2019-05-21T20:49:20.090Z,19.55
2019-05-21T20:51:50.184Z,19.53
2019-05-21T20:54:21.931Z,19.51
2019-05-21T20:56:52.113Z,19.51
2019-05-21T20:59:21.723Z,19.53
2019-05-21T21:01:51.362Z,19.52
2019-05-21T21:04:20.873Z,19.51
2019-05-21T21:06:50.436Z,19.51
2019-05-21T21:09:20.631Z,19.51
2019-05-21T21:11:51.126Z,19.50
2019-05-21T21:14:22.525Z,19.49
2019-05-21T21:16:52.730Z,19.47
2019-05-21T21:19:22.748Z,19.48
2019-05-21T21:21:52.912Z,19.46
2019-05-21T21:24:22.467Z,19.44
2019-05-21T21:26:52.492Z,19.44
2019-05-21T21:29:22.362Z,19.42
2019-05-21T21:31:51.890Z,19.40
2019-05-21T21:34:21.723Z,19.40
2019-05-21T21:36:53.266Z,19.38
2019-05-21T21:39:23.477Z,19.35
2019-05-21T21:41:53.321Z,19.33
2019-05-21T21:44:33.649Z,19.32
2019-05-21T21:46:55.200Z,19.32
2019-05-21T21:49:27.506Z,19.30
2019-05-21T21:51:57.025Z,19.29
2019-05-21T21:54:26.581Z,19.26
2019-05-21T21:56:56.335Z,19.23
2019-05-21T21:59:26.137Z,19.21
2019-05-21T22:02:00.216Z,19.19
2019-05-21T22:04:35.782Z,19.16
2019-05-21T22:07:06.149Z,19.15
2019-05-21T22:09:37.864Z,19.15
2019-05-21T22:12:10.366Z,19.15
2019-05-21T22:14:50.222Z,19.14
2019-05-21T22:17:15.870Z,19.15
2019-05-21T22:19:45.440Z,19.14
2019-05-21T22:22:14.997Z,19.14
2019-05-21T22:24:44.917Z,19.09
2019-05-21T22:27:14.576Z,19.07
2019-05-21T22:29:44.326Z,19.06
2019-05-21T22:32:16.629Z,19.03
2019-05-21T22:34:45.409Z,19.01
2019-05-21T22:37:16.958Z,19.02
2019-05-21T22:39:48.068Z,19.02
2019-05-21T22:42:17.747Z,19.03
2019-05-21T22:44:48.136Z,19.01
2019-05-21T22:47:17.762Z,18.93
2019-05-21T22:49:47.463Z,18.87
2019-05-21T22:52:17.261Z,18.84
2019-05-21T22:54:47.579Z,18.82
2019-05-21T22:57:17.383Z,18.79
2019-05-21T22:59:48.165Z,18.76
2019-05-21T23:02:22.595Z,18.73
2019-05-21T23:04:52.637Z,18.69
2019-05-21T23:07:22.348Z,18.64
2019-05-21T23:09:51.810Z,18.63
2019-05-21T23:12:21.522Z,18.60
2019-05-21T23:14:51.355Z,18.53
2019-05-21T23:17:21.389Z,18.52
2019-05-21T23:19:51.190Z,18.52
2019-05-21T23:22:23.029Z,18.44
2019-05-21T23:24:53.373Z,18.45
2019-05-21T23:27:22.949Z,18.46
2019-05-21T23:29:52.996Z,18.45
2019-05-21T23:32:23.417Z,18.40
2019-05-21T23:34:53.623Z,18.39
2019-05-21T23:37:24.188Z,18.30
2019-05-21T23:39:55.760Z,18.30
2019-05-21T23:42:29.906Z,18.29
2019-05-21T23:44:57.772Z,18.24
2019-05-21T23:47:27.591Z,18.29
2019-05-21T23:49:57.093Z,18.30
2019-05-21T23:52:27.635Z,18.30
2019-05-21T23:54:59.886Z,18.27
2019-05-21T23:57:30.826Z,18.26
